createdAt,value
2022-08-03T00:01:49.627Z,82.92
2022-08-03T00:04:16.678Z,83.87
2022-08-03T00:06:43.137Z,84.37
2022-08-03T00:09:09.770Z,84.19
2022-08-03T00:11:37.363Z,84.37
2022-08-03T00:14:05.733Z,83.91
2022-08-03T00:16:32.851Z,84.61
2022-08-03T00:19:00.773Z,84.32
2022-08-03T00:21:28.435Z,84.08
2022-08-03T00:23:55.207Z,84.59
2022-08-03T00:26:22.450Z,83.88
2022-08-03T00:28:49.761Z,84.06
2022-08-03T00:31:19.763Z,84.74
2022-08-03T00:34:03.368Z,84.51
2022-08-03T00:36:30.376Z,84.39
2022-08-03T00:38:56.843Z,83.98
2022-08-03T00:41:23.304Z,84.22
2022-08-03T00:43:50.317Z,84.20
2022-08-03T00:46:21.408Z,84.01
2022-08-03T00:48:52.120Z,84.22
2022-08-03T00:51:20.771Z,84.74
2022-08-03T00:53:47.559Z,84.68
2022-08-03T00:56:15.773Z,84.13
2022-08-03T00:58:43.792Z,83.65
2022-08-03T01:01:12.261Z,83.60
2022-08-03T01:03:39.270Z,84.04
2022-08-03T01:06:19.256Z,84.04
2022-08-03T01:09:00.600Z,83.87
2022-08-03T01:12:01.003Z,84.43
2022-08-03T01:14:38.728Z,84.21
2022-08-03T01:17:21.203Z,84.01
2022-08-03T01:19:52.848Z,83.71
2022-08-03T01:22:57.589Z,83.46
2022-08-03T01:25:28.901Z,83.74
2022-08-03T01:28:02.698Z,83.98
2022-08-03T01:30:35.692Z,83.99
2022-08-03T01:33:12.397Z,84.00
2022-08-03T01:35:49.061Z,83.70
2022-08-03T01:38:22.079Z,83.80
2022-08-03T01:40:52.259Z,84.10
2022-08-03T01:44:26.732Z,84.12
2022-08-03T01:46:09.024Z,84.10
2022-08-03T01:48:39.090Z,84.31
2022-08-03T01:51:09.219Z,83.93
2022-08-03T01:53:36.935Z,84.29
2022-08-03T01:56:06.244Z,84.58
2022-08-03T01:58:35.470Z,84.17
2022-08-03T02:01:05.015Z,84.13
2022-08-03T02:03:36.432Z,84.40
2022-08-03T02:07:00.281Z,84.27
2022-08-03T02:08:53.019Z,84.22
2022-08-03T02:11:20.586Z,84.26
2022-08-03T02:13:48.477Z,84.09
2022-08-03T02:16:14.951Z,84.65
2022-08-03T02:18:42.563Z,85.08
2022-08-03T02:21:11.833Z,84.77
2022-08-03T02:23:58.564Z,84.35
2022-08-03T02:26:28.921Z,83.89
2022-08-03T02:28:58.527Z,84.16
2022-08-03T02:31:30.925Z,84.54
2022-08-03T02:34:03.069Z,84.82
2022-08-03T02:36:33.048Z,84.98
2022-08-03T02:39:02.121Z,84.69
2022-08-03T02:41:35.774Z,84.51
2022-08-03T02:44:07.960Z,84.85
2022-08-03T02:46:38.439Z,84.34
2022-08-03T02:49:49.446Z,84.06
2022-08-03T02:51:55.093Z,84.10
2022-08-03T02:54:25.229Z,83.92
2022-08-03T02:56:53.766Z,84.22
2022-08-03T02:59:21.657Z,84.10
2022-08-03T03:01:48.948Z,84.23
2022-08-03T03:04:17.062Z,83.76
2022-08-03T03:06:44.563Z,84.34
2022-08-03T03:09:14.475Z,85.01
2022-08-03T03:11:42.386Z,85.06
2022-08-03T03:14:11.298Z,84.94
2022-08-03T03:16:40.531Z,84.76
2022-08-03T03:19:08.421Z,84.78
2022-08-03T03:21:36.636Z,85.29
2022-08-03T03:24:05.263Z,85.89
2022-08-03T03:26:32.987Z,85.21
2022-08-03T03:28:59.691Z,85.02
2022-08-03T03:31:26.119Z,85.13
2022-08-03T03:33:52.876Z,84.38
2022-08-03T03:36:19.426Z,84.84
2022-08-03T03:38:45.828Z,84.93
2022-08-03T03:41:12.728Z,84.72
2022-08-03T03:43:39.131Z,84.66
2022-08-03T03:46:05.593Z,84.53
2022-08-03T03:48:32.387Z,84.74
2022-08-03T03:50:59.180Z,84.56
2022-08-03T03:53:25.537Z,84.59
2022-08-03T03:55:59.406Z,85.23
2022-08-03T03:58:28.687Z,84.74
2022-08-03T04:00:55.933Z,84.39
2022-08-03T04:03:22.374Z,84.37
2022-08-03T04:06:08.043Z,84.12
2022-08-03T04:08:52.751Z,84.07
2022-08-03T04:11:32.242Z,84.21
2022-08-03T04:14:24.882Z,83.75
2022-08-03T04:17:07.500Z,83.75
2022-08-03T04:19:40.634Z,84.05
2022-08-03T04:22:11.684Z,84.15
2022-08-03T04:24:50.732Z,84.20
2022-08-03T04:27:22.320Z,84.16
2022-08-03T04:29:52.972Z,83.87
2022-08-03T04:32:23.841Z,83.66
2022-08-03T04:34:50.582Z,83.08
2022-08-03T04:37:43.558Z,83.41
2022-08-03T04:40:14.506Z,83.67
2022-08-03T04:42:43.919Z,83.71
2022-08-03T04:45:16.157Z,83.43
2022-08-03T04:47:43.164Z,83.05
2022-08-03T04:50:12.936Z,82.97
2022-08-03T04:52:40.796Z,83.01
2022-08-03T04:55:08.054Z,83.50
2022-08-03T04:57:34.483Z,83.41
2022-08-03T05:00:02.983Z,83.71
2022-08-03T05:02:31.149Z,84.00
2022-08-03T05:04:58.043Z,83.92
2022-08-03T05:07:25.375Z,83.95
2022-08-03T05:09:57.547Z,83.78
2022-08-03T05:12:32.529Z,84.07
2022-08-03T05:15:00.270Z,84.23
2022-08-03T05:17:26.729Z,84.48
2022-08-03T05:19:53.096Z,84.39
2022-08-03T05:22:20.135Z,84.50
2022-08-03T05:24:47.031Z,84.39
2022-08-03T05:27:19.488Z,84.42
2022-08-03T05:29:47.174Z,84.29
2022-08-03T05:32:13.642Z,84.38
2022-08-03T05:34:40.379Z,84.19
2022-08-03T05:37:07.347Z,84.21
2022-08-03T05:39:34.698Z,83.86
2022-08-03T05:42:02.205Z,83.38
2022-08-03T05:44:28.764Z,83.06
2022-08-03T05:46:57.263Z,82.71
2022-08-03T05:49:24.084Z,82.84
2022-08-03T05:52:00.388Z,82.62
2022-08-03T05:54:56.120Z,78.98
2022-08-03T05:57:22.368Z,73.26
2022-08-03T05:59:54.010Z,68.22
2022-08-03T06:02:28.404Z,61.14
2022-08-03T06:04:55.303Z,60.70
2022-08-03T06:07:21.713Z,55.02
2022-08-03T06:10:34.040Z,55.84
2022-08-03T06:12:36.485Z,54.70
2022-08-03T06:15:04.748Z,54.98
2022-08-03T06:17:37.221Z,50.83
2022-08-03T06:20:06.075Z,47.64
2022-08-03T06:22:32.983Z,46.09
2022-08-03T06:25:04.181Z,44.69
2022-08-03T06:27:37.139Z,41.49
2022-08-03T06:30:05.091Z,40.42
2022-08-03T06:32:31.558Z,39.19
2022-08-03T06:34:57.924Z,38.91
2022-08-03T06:37:24.879Z,36.67
2022-08-03T06:39:51.236Z,36.47
2022-08-03T06:42:17.935Z,35.55
2022-08-03T06:44:47.409Z,35.75
2022-08-03T06:47:13.757Z,35.46
2022-08-03T06:49:41.371Z,33.88
2022-08-03T06:52:08.136Z,33.00
2022-08-03T06:54:35.713Z,32.34
2022-08-03T06:57:02.336Z,32.81
2022-08-03T07:00:09.790Z,35.68
2022-08-03T07:02:19.439Z,34.05
2022-08-03T07:04:48.140Z,31.79
2022-08-03T07:07:14.511Z,31.94
2022-08-03T07:09:40.854Z,31.27
2022-08-03T07:12:08.810Z,31.11
2022-08-03T07:14:35.251Z,30.69
2022-08-03T07:17:01.655Z,30.56
2022-08-03T07:19:31.580Z,31.21
2022-08-03T07:22:02.329Z,32.29
2022-08-03T07:24:30.856Z,32.91
2022-08-03T07:26:57.488Z,32.07
2022-08-03T07:29:24.371Z,32.18
2022-08-03T07:31:50.732Z,32.37
2022-08-03T07:34:17.127Z,30.77
2022-08-03T07:36:43.921Z,30.29
2022-08-03T07:39:15.329Z,28.63
2022-08-03T07:41:44.371Z,29.57
2022-08-03T07:44:11.316Z,28.26
2022-08-03T07:46:37.693Z,28.32
2022-08-03T07:49:04.236Z,29.29
2022-08-03T07:51:31.227Z,26.20
2022-08-03T07:53:57.726Z,24.29
2022-08-03T07:56:27.212Z,23.75
2022-08-03T07:58:54.973Z,25.18
2022-08-03T08:01:22.304Z,24.59
2022-08-03T08:03:53.319Z,27.00
2022-08-03T08:06:21.798Z,29.23
2022-08-03T08:08:48.224Z,27.72
2022-08-03T08:11:14.927Z,29.98
2022-08-03T08:13:41.844Z,28.37
2022-08-03T08:16:08.287Z,29.22
2022-08-03T08:18:34.649Z,28.06
2022-08-03T08:21:03.121Z,29.60
2022-08-03T08:23:42.931Z,28.45
2022-08-03T08:26:11.403Z,27.71
2022-08-03T08:28:38.163Z,28.42
2022-08-03T08:31:04.625Z,26.89
2022-08-03T08:34:02.532Z,27.22
2022-08-03T08:36:18.487Z,26.71
2022-08-03T08:38:45.115Z,27.88
2022-08-03T08:41:13.085Z,28.36
2022-08-03T08:43:40.728Z,25.99
2022-08-03T08:46:10.034Z,25.44
2022-08-03T08:48:41.897Z,26.78
2022-08-03T08:51:09.327Z,27.46
2022-08-03T08:53:37.720Z,27.67
2022-08-03T08:56:05.738Z,27.58
2022-08-03T08:58:38.175Z,29.85
2022-08-03T09:01:05.260Z,29.73
2022-08-03T09:03:34.447Z,29.15
2022-08-03T09:06:02.645Z,26.52
2022-08-03T09:08:31.189Z,26.12
2022-08-03T09:10:57.939Z,25.15
2022-08-03T09:13:24.751Z,25.13
2022-08-03T09:16:15.295Z,24.21
2022-08-03T09:18:44.282Z,26.41
2022-08-03T09:21:31.311Z,25.42
2022-08-03T09:24:03.191Z,24.77
2022-08-03T09:26:31.572Z,23.88
2022-08-03T09:29:07.146Z,28.10
2022-08-03T09:31:46.497Z,25.54
2022-08-03T09:34:15.180Z,24.90
2022-08-03T09:36:47.387Z,23.85
2022-08-03T09:39:14.697Z,24.53
2022-08-03T09:42:02.563Z,25.14
2022-08-03T09:44:43.572Z,25.13
2022-08-03T09:47:12.084Z,25.36
2022-08-03T09:49:41.614Z,26.07
2022-08-03T09:52:37.850Z,27.94
2022-08-03T09:56:30.773Z,28.86
2022-08-03T09:58:09.749Z,31.63
2022-08-03T10:00:54.694Z,28.34
2022-08-03T10:03:21.882Z,26.30
2022-08-03T10:05:48.873Z,25.57
2022-08-03T10:08:17.335Z,25.28
2022-08-03T10:10:45.380Z,25.72
2022-08-03T10:13:17.846Z,25.49
2022-08-03T10:16:23.292Z,24.87
2022-08-03T10:18:32.905Z,25.32
2022-08-03T10:21:04.661Z,24.21
2022-08-03T10:23:35.850Z,20.64
2022-08-03T10:26:04.147Z,21.60
2022-08-03T10:28:45.315Z,21.08
2022-08-03T10:31:13.944Z,21.46
2022-08-03T10:33:51.568Z,21.85
2022-08-03T10:36:23.716Z,24.24
2022-08-03T10:38:53.445Z,22.76
2022-08-03T10:41:21.864Z,25.22
2022-08-03T10:43:58.525Z,21.66
2022-08-03T10:46:27.657Z,21.88
2022-08-03T10:48:56.529Z,21.89
2022-08-03T10:51:23.568Z,25.48
2022-08-03T10:53:55.357Z,26.16
2022-08-03T10:56:53.535Z,23.86
2022-08-03T10:59:46.475Z,20.16
2022-08-03T11:02:14.234Z,20.57
2022-08-03T11:04:41.484Z,20.21
2022-08-03T11:07:24.199Z,21.55
2022-08-03T11:09:51.804Z,22.97
2022-08-03T11:12:30.071Z,23.52
2022-08-03T11:15:06.236Z,27.23
2022-08-03T11:17:46.788Z,29.53
2022-08-03T11:20:48.513Z,23.70
2022-08-03T11:23:16.901Z,22.94
2022-08-03T11:26:22.500Z,23.50
2022-08-03T11:28:49.311Z,24.25
2022-08-03T11:31:46.688Z,26.85
2022-08-03T11:34:14.415Z,24.77
2022-08-03T11:37:19.968Z,23.19
2022-08-03T11:39:48.343Z,22.34
2022-08-03T11:42:24.646Z,24.71
2022-08-03T11:44:56.247Z,20.68
2022-08-03T11:47:24.740Z,20.20
2022-08-03T11:49:53.941Z,18.78
2022-08-03T11:52:26.753Z,18.00
2022-08-03T11:54:56.730Z,19.34
2022-08-03T11:59:01.178Z,23.12
2022-08-03T12:00:32.615Z,22.82
2022-08-03T12:03:08.957Z,24.32
2022-08-03T12:05:51.243Z,23.75
2022-08-03T12:08:39.973Z,22.86
2022-08-03T12:11:08.675Z,19.91
2022-08-03T12:14:45.594Z,20.59
2022-08-03T12:16:31.143Z,22.38
2022-08-03T12:19:06.784Z,20.92
2022-08-03T12:21:33.356Z,21.55
2022-08-03T12:24:02.016Z,22.61
2022-08-03T12:26:30.355Z,23.54
2022-08-03T12:28:57.731Z,23.76
2022-08-03T12:31:24.807Z,24.27
2022-08-03T12:34:02.268Z,23.04
2022-08-03T12:36:30.606Z,23.02
2022-08-03T12:39:01.124Z,20.63
2022-08-03T12:41:34.190Z,21.66
2022-08-03T12:44:03.238Z,23.42
2022-08-03T12:46:32.239Z,23.41
2022-08-03T12:49:15.699Z,23.71
2022-08-03T12:51:42.057Z,19.55
2022-08-03T12:54:10.290Z,18.16
2022-08-03T12:56:57.673Z,20.25
2022-08-03T12:59:32.500Z,19.08
2022-08-03T13:02:02.864Z,18.25
2022-08-03T13:04:36.182Z,18.44
2022-08-03T13:07:04.555Z,20.53
2022-08-03T13:09:49.054Z,23.64
2022-08-03T13:12:18.001Z,22.70
2022-08-03T13:14:47.451Z,22.11
2022-08-03T13:17:14.003Z,22.33
2022-08-03T13:19:40.837Z,21.64
2022-08-03T13:22:20.687Z,20.52
2022-08-03T13:24:50.029Z,20.45
2022-08-03T13:28:04.928Z,18.44
2022-08-03T13:30:04.066Z,19.71
2022-08-03T13:32:30.712Z,22.92
2022-08-03T13:34:57.171Z,21.94
2022-08-03T13:37:24.291Z,21.13
2022-08-03T13:39:59.692Z,20.34
2022-08-03T13:42:30.887Z,20.37
2022-08-03T13:44:57.820Z,18.60
2022-08-03T13:47:24.489Z,18.43
2022-08-03T13:49:54.134Z,19.35
2022-08-03T13:52:32.929Z,20.99
2022-08-03T13:55:00.545Z,24.32
2022-08-03T13:58:03.562Z,24.02
2022-08-03T14:00:26.650Z,24.23
2022-08-03T14:03:02.737Z,21.84
2022-08-03T14:05:32.424Z,22.03
2022-08-03T14:08:04.856Z,20.75
2022-08-03T14:10:33.352Z,20.82
2022-08-03T14:13:00.337Z,21.10
2022-08-03T14:15:28.900Z,19.91
2022-08-03T14:17:56.157Z,18.69
2022-08-03T14:20:37.195Z,20.73
2022-08-03T14:23:07.177Z,19.69
2022-08-03T14:25:44.487Z,19.95
2022-08-03T14:28:18.859Z,19.92
2022-08-03T14:30:46.476Z,20.14
2022-08-03T14:33:12.843Z,21.08
2022-08-03T14:35:39.411Z,23.54
2022-08-03T14:38:06.483Z,22.09
2022-08-03T14:40:32.902Z,20.57
2022-08-03T14:42:59.290Z,20.25
2022-08-03T14:45:26.054Z,19.77
2022-08-03T14:50:32.076Z,18.49
2022-08-03T14:50:44.202Z,18.25
2022-08-03T14:53:12.177Z,20.00
2022-08-03T14:55:50.482Z,20.71
2022-08-03T14:58:23.022Z,21.90
2022-08-03T15:00:51.028Z,21.75
2022-08-03T15:03:23.976Z,21.64
2022-08-03T15:05:55.233Z,21.75
2022-08-03T15:08:23.508Z,22.21
2022-08-03T15:10:50.398Z,21.96
2022-08-03T15:13:17.802Z,21.00
2022-08-03T15:15:44.275Z,21.67
2022-08-03T15:18:10.816Z,22.31
2022-08-03T15:20:44.978Z,23.87
2022-08-03T15:23:14.530Z,23.88
2022-08-03T15:26:28.152Z,23.89
2022-08-03T15:28:30.232Z,24.15
2022-08-03T15:30:57.025Z,24.48
2022-08-03T15:33:23.429Z,24.64
2022-08-03T15:35:50.125Z,24.76
2022-08-03T15:38:17.257Z,25.38
2022-08-03T15:40:43.886Z,24.77
2022-08-03T15:43:10.456Z,25.03
2022-08-03T15:45:37.581Z,24.09
2022-08-03T15:48:05.428Z,24.64
2022-08-03T15:50:31.870Z,24.83
2022-08-03T15:52:58.631Z,24.96
2022-08-03T15:55:25.149Z,24.81
2022-08-03T15:59:04.117Z,24.17
2022-08-03T16:00:39.020Z,25.41
2022-08-03T16:03:06.223Z,24.53
2022-08-03T16:05:32.620Z,24.62
2022-08-03T16:08:03.700Z,26.16
2022-08-03T16:10:32.136Z,25.48
2022-08-03T16:13:00.521Z,25.87
2022-08-03T16:15:27.052Z,24.86
2022-08-03T16:17:53.446Z,24.35
2022-08-03T16:20:29.222Z,25.05
2022-08-03T16:23:10.846Z,24.75
2022-08-03T16:25:44.262Z,24.23
2022-08-03T16:28:16.386Z,24.50
2022-08-03T16:30:45.621Z,25.28
2022-08-03T16:33:16.968Z,24.83
2022-08-03T16:35:44.581Z,26.03
2022-08-03T16:38:16.527Z,26.09
2022-08-03T16:40:45.716Z,25.66
2022-08-03T16:43:18.979Z,25.49
2022-08-03T16:45:47.347Z,25.89
2022-08-03T16:48:17.420Z,26.62
2022-08-03T16:50:44.614Z,27.42
2022-08-03T16:53:17.102Z,28.31
2022-08-03T16:55:59.213Z,27.12
2022-08-03T16:58:41.307Z,25.62
2022-08-03T17:01:24.735Z,25.94
2022-08-03T17:04:03.247Z,25.83
2022-08-03T17:06:35.350Z,25.67
2022-08-03T17:09:10.851Z,26.01
2022-08-03T17:11:46.439Z,27.15
2022-08-03T17:14:15.359Z,26.95
2022-08-03T17:16:53.042Z,28.41
2022-08-03T17:19:23.708Z,28.98
2022-08-03T17:21:58.635Z,29.61
2022-08-03T17:24:45.551Z,28.24
2022-08-03T17:28:42.168Z,28.48
2022-08-03T17:30:12.139Z,29.89
2022-08-03T17:32:42.894Z,29.64
2022-08-03T17:35:20.883Z,31.30
2022-08-03T17:37:57.365Z,33.65
2022-08-03T17:40:31.758Z,34.74
2022-08-03T17:43:00.181Z,34.87
2022-08-03T17:45:52.117Z,35.81
2022-08-03T17:48:18.478Z,36.93
2022-08-03T17:50:51.646Z,37.78
2022-08-03T17:53:28.807Z,40.00
2022-08-03T17:56:44.723Z,40.51
2022-08-03T17:59:08.569Z,40.03
2022-08-03T18:02:22.275Z,40.46
2022-08-03T18:05:03.283Z,42.16
2022-08-03T18:08:01.644Z,43.18
2022-08-03T18:10:35.251Z,42.92
2022-08-03T18:13:10.467Z,45.10
2022-08-03T18:15:51.784Z,44.75
2022-08-03T18:18:32.217Z,46.82
2022-08-03T18:21:06.563Z,45.84
2022-08-03T18:23:37.653Z,48.11
2022-08-03T18:26:10.684Z,47.91
2022-08-03T18:28:39.217Z,48.46
2022-08-03T18:31:07.089Z,48.26
2022-08-03T18:34:18.615Z,49.81
2022-08-03T18:36:30.223Z,50.25
2022-08-03T18:39:02.469Z,50.87
2022-08-03T18:41:33.672Z,50.48
2022-08-03T18:44:06.650Z,50.98
2022-08-03T18:46:50.345Z,51.21
2022-08-03T18:49:32.484Z,51.80
2022-08-03T18:52:15.765Z,52.62
2022-08-03T18:55:20.002Z,54.31
2022-08-03T18:57:59.492Z,54.81
2022-08-03T19:00:42.559Z,56.00
2022-08-03T19:03:25.346Z,55.78
2022-08-03T19:06:19.699Z,55.29
2022-08-03T19:08:53.892Z,56.24
2022-08-03T19:12:14.476Z,56.16
2022-08-03T19:14:23.148Z,56.84
2022-08-03T19:17:04.400Z,57.47
2022-08-03T19:19:43.373Z,57.45
2022-08-03T19:22:16.104Z,58.54
2022-08-03T19:24:47.665Z,58.95
2022-08-03T19:27:16.041Z,58.29
2022-08-03T19:29:58.823Z,58.91
2022-08-03T19:32:29.397Z,58.49
2022-08-03T19:34:57.244Z,58.81
2022-08-03T19:37:27.441Z,59.67
2022-08-03T19:40:10.373Z,60.77
2022-08-03T19:42:44.195Z,60.61
2022-08-03T19:45:14.816Z,61.47
2022-08-03T19:48:10.133Z,61.78
2022-08-03T19:50:37.940Z,61.94
2022-08-03T19:53:12.989Z,62.25
2022-08-03T19:55:48.141Z,61.99
2022-08-03T19:58:17.829Z,61.36
2022-08-03T20:00:55.797Z,61.38
2022-08-03T20:03:23.495Z,62.25
2022-08-03T20:05:51.879Z,62.61
2022-08-03T20:08:21.339Z,62.86
2022-08-03T20:10:49.312Z,63.31
2022-08-03T20:13:19.369Z,64.05
2022-08-03T20:15:46.536Z,64.53
2022-08-03T20:21:15.074Z,66.13
2022-08-03T20:24:01.612Z,66.17
2022-08-03T20:26:30.642Z,66.34
2022-08-03T20:29:08.917Z,66.17
2022-08-03T20:31:37.817Z,66.13
2022-08-03T20:34:06.170Z,66.09
2022-08-03T20:36:32.719Z,66.13
2022-08-03T20:38:59.826Z,66.27
2022-08-03T20:41:26.566Z,66.66
2022-08-03T20:43:53.038Z,66.99
2022-08-03T20:46:28.512Z,67.45
2022-08-03T20:48:58.837Z,67.73
2022-08-03T20:51:49.973Z,68.09
2022-08-03T20:54:22.442Z,68.17
2022-08-03T20:56:56.877Z,68.91
2022-08-03T20:59:24.277Z,69.11
2022-08-03T21:01:50.656Z,69.22
2022-08-03T21:04:20.868Z,69.24
2022-08-03T21:06:53.905Z,69.92
2022-08-03T21:09:24.865Z,71.28
2022-08-03T21:12:03.291Z,72.61
2022-08-03T21:13:09.879Z,64.90
2022-08-03T21:14:32.826Z,72.16
2022-08-03T21:17:09.403Z,71.56
2022-08-03T21:19:52.118Z,71.35
2022-08-03T21:22:22.622Z,71.50
2022-08-03T21:24:54.336Z,71.59
2022-08-03T21:27:24.276Z,71.68
2022-08-03T21:29:53.455Z,71.78
2022-08-03T21:32:32.378Z,72.08
2022-08-03T21:35:02.629Z,72.45
2022-08-03T21:37:29.628Z,73.08
2022-08-03T21:39:56.555Z,72.65
2022-08-03T21:42:23.786Z,72.92
2022-08-03T21:44:52.667Z,72.49
2022-08-03T21:47:22.059Z,72.84
2022-08-03T21:50:08.342Z,73.05
2022-08-03T21:52:42.079Z,73.60
2022-08-03T21:55:09.120Z,73.18
2022-08-03T21:57:51.087Z,73.42
2022-08-03T22:00:19.964Z,74.01
2022-08-03T22:02:54.547Z,74.04
2022-08-03T22:05:28.905Z,74.23
2022-08-03T22:08:09.999Z,74.08
2022-08-03T22:10:36.926Z,74.50
2022-08-03T22:13:03.356Z,74.44
2022-08-03T22:15:31.026Z,74.33
2022-08-03T22:17:59.056Z,74.63
2022-08-03T22:20:25.851Z,74.47
2022-08-03T22:22:59.766Z,74.72
2022-08-03T22:25:29.661Z,75.34
2022-08-03T22:27:58.381Z,75.26
2022-08-03T22:30:25.783Z,75.48
2022-08-03T22:32:55.051Z,75.14
2022-08-03T22:35:25.171Z,75.18
2022-08-03T22:37:54.912Z,75.21
2022-08-03T22:40:22.035Z,75.19
2022-08-03T22:42:49.533Z,75.77
2022-08-03T22:46:07.945Z,75.92
2022-08-03T22:48:08.156Z,76.33
2022-08-03T22:50:35.036Z,76.24
2022-08-03T22:53:01.485Z,76.42
2022-08-03T22:55:28.064Z,76.36
2022-08-03T22:57:56.154Z,76.47
2022-08-03T23:00:23.316Z,76.59
2022-08-03T23:02:52.262Z,77.46
2022-08-03T23:06:01.900Z,77.60
2022-08-03T23:08:15.406Z,78.28
2022-08-03T23:10:46.692Z,78.15
2022-08-03T23:13:16.346Z,78.15
2022-08-03T23:15:51.126Z,78.12
2022-08-03T23:18:20.851Z,78.07
2022-08-03T23:20:51.513Z,77.63
2022-08-03T23:23:20.584Z,77.43
2022-08-03T23:25:50.094Z,77.83
2022-08-03T23:28:17.310Z,78.39
2022-08-03T23:30:47.429Z,78.98
2022-08-03T23:33:15.085Z,78.84
2022-08-03T23:36:28.420Z,78.51
2022-08-03T23:38:45.899Z,77.77
2022-08-03T23:41:13.685Z,77.90
2022-08-03T23:43:52.193Z,78.18
2022-08-03T23:46:26.120Z,78.37
2022-08-03T23:48:53.786Z,78.51
2022-08-03T23:51:34.575Z,79.39
2022-08-03T23:54:21.511Z,78.79
2022-08-03T23:56:59.603Z,78.77
2022-08-03T23:59:43.798Z,78.71
